Time;durP1;ratioP1;P1;durP2;ratioP2;P2;SDS_P1;SDS_P2;PMS_P1;PMS_P2;Temp;Humidity;BMP_temperature;BMP_pressure;BME280_temperature;BME280_humidity;BME280_pressure;Samples;Min_cycle;Max_cycle;Signal;HPM_P1;HPM_P2
2024/01/24 00:01:31;;;;;;;18.60;13.98;;;;;;;16.63;41.82;94180.41;5035434;28;20112;-90
2024/01/24 00:03:57;;;;;;;17.63;13.65;;;;;;;16.60;41.64;94176.63;5051861;28;20442;-89
2024/01/24 00:06:22;;;;;;;17.23;13.63;;;;;;;16.60;41.84;94167.69;5051480;28;20584;-90
2024/01/24 00:08:48;;;;;;;15.52;12.68;;;;;;;16.64;41.74;94169.03;5018131;28;20048;-91
2024/01/24 00:11:14;;;;;;;16.83;12.02;;;;;;;16.61;41.89;94167.22;5051427;28;20068;-89
2024/01/24 00:13:39;;;;;;;19.10;13.35;;;;;;;16.63;41.80;94150.38;5051388;28;20103;-90
2024/01/24 00:16:05;;;;;;;16.08;12.07;;;;;;;16.69;41.50;94151.19;5049054;28;20033;-91
2024/01/24 00:18:30;;;;;;;16.45;12.25;;;;;;;16.67;41.53;94151.66;5036386;28;20044;-88
2024/01/24 00:20:56;;;;;;;16.55;12.60;;;;;;;16.63;41.74;94153.88;5069858;28;20091;-87
2024/01/24 00:23:23;;;;;;;16.10;11.38;;;;;;;16.64;41.47;94147.19;5050967;28;20049;-90
2024/01/24 00:25:48;;;;;;;14.18;11.38;;;;;;;16.68;41.39;94146.94;5056224;28;20066;-91
2024/01/24 00:28:15;;;;;;;15.55;11.45;;;;;;;16.64;41.54;94144.47;5035325;28;20121;-91
2024/01/24 00:30:40;;;;;;;16.85;12.60;;;;;;;16.58;42.06;94132.69;5051491;28;20040;-91
2024/01/24 00:33:05;;;;;;;15.77;11.55;;;;;;;16.64;41.67;94133.53;5026508;28;20052;-91
2024/01/24 00:35:31;;;;;;;15.25;11.80;;;;;;;16.63;41.55;94129.31;5042921;28;20438;-91
2024/01/24 00:37:56;;;;;;;16.33;11.65;;;;;;;16.60;41.97;94108.41;5051667;28;20471;-90
2024/01/24 00:40:22;;;;;;;15.52;11.32;;;;;;;16.55;41.82;94098.19;5068969;28;20045;-91
2024/01/24 00:42:48;;;;;;;15.02;11.20;;;;;;;16.63;41.71;94109.41;5051198;28;20040;-91
2024/01/24 00:45:13;;;;;;;15.70;11.40;;;;;;;16.64;41.80;94108.97;5034172;28;20370;-89
2024/01/24 00:47:39;;;;;;;13.88;10.90;;;;;;;16.57;41.80;94101.16;5050517;28;20040;-91
2024/01/24 00:50:06;;;;;;;15.60;11.40;;;;;;;16.61;41.72;94104.44;5023470;28;20037;-89
2024/01/24 00:52:34;;;;;;;16.85;10.60;;;;;;;16.64;41.62;94089.88;5034076;28;20324;-90
2024/01/24 00:55:00;;;;;;;12.75;10.25;;;;;;;16.64;41.36;94081.69;5018868;28;20029;-89
2024/01/24 00:57:25;;;;;;;11.75;9.75;;;;;;;16.64;41.68;94084.41;5068182;28;20090;-91
2024/01/24 00:59:51;;;;;;;11.80;10.05;;;;;;;16.69;41.68;94088.38;5018026;28;20414;-90
2024/01/24 01:02:17;;;;;;;13.80;10.88;;;;;;;16.66;41.63;94090.13;5049328;28;20419;-90
2024/01/24 01:04:43;;;;;;;15.25;10.35;;;;;;;16.68;41.25;94095.09;5034384;28;20075;-90
2024/01/24 01:07:09;;;;;;;15.10;9.32;;;;;;;16.68;41.53;94089.63;5019388;28;20113;-85
2024/01/24 01:09:35;;;;;;;14.93;10.60;;;;;;;16.64;41.95;94084.41;5034360;28;20173;-84
2024/01/24 01:12:01;;;;;;;12.88;10.00;;;;;;;16.63;41.82;94073.94;5017861;28;20414;-90
2024/01/24 01:14:27;;;;;;;12.88;10.23;;;;;;;16.58;41.83;94071.91;5049228;28;20043;-88
2024/01/24 01:16:53;;;;;;;14.95;10.02;;;;;;;16.71;41.16;94073.03;5036614;28;20041;-91
2024/01/24 01:19:19;;;;;;;13.77;10.18;;;;;;;16.70;41.34;94063.34;5050565;28;20053;-91
2024/01/24 01:21:44;;;;;;;15.15;10.90;;;;;;;16.66;41.56;94062.09;5049980;28;20056;-90
2024/01/24 01:24:10;;;;;;;11.73;9.10;;;;;;;16.59;41.88;94065.97;5053753;28;20055;-89
2024/01/24 01:26:35;;;;;;;11.98;8.77;;;;;;;16.64;41.61;94053.63;5049722;28;20047;-90
2024/01/24 01:29:01;;;;;;;12.23;9.15;;;;;;;16.64;41.41;94065.28;5050534;28;20040;-90
2024/01/24 01:31:26;;;;;;;10.88;8.57;;;;;;;16.60;41.51;94064.72;5033752;28;20049;-89
2024/01/24 01:33:52;;;;;;;12.00;8.35;;;;;;;16.63;41.87;94065.75;5057794;28;20052;-91
2024/01/24 01:36:17;;;;;;;12.43;9.15;;;;;;;16.65;41.49;94055.13;5049199;28;20045;-91
2024/01/24 01:38:43;;;;;;;12.98;8.88;;;;;;;16.61;41.37;94041.66;5056271;28;20415;-90
2024/01/24 01:41:08;;;;;;;10.85;8.63;;;;;;;16.56;41.98;94042.34;5049566;28;20451;-90
2024/01/24 01:43:34;;;;;;;10.95;8.75;;;;;;;16.57;42.00;94026.72;5049835;28;20123;-91
2024/01/24 01:46:04;;;;;;;11.23;8.85;;;;;;;16.55;41.94;94026.47;5033600;28;20411;-87
2024/01/24 01:48:30;;;;;;;14.00;9.43;;;;;;;16.65;41.74;94022.38;5017413;28;20079;-89
2024/01/24 01:50:55;;;;;;;10.73;8.57;;;;;;;16.57;41.75;94021.28;5050301;28;20426;-89
2024/01/24 01:53:23;;;;;;;10.07;7.95;;;;;;;16.63;41.69;94011.94;5032331;28;20043;-90
2024/01/24 01:55:49;;;;;;;9.85;8.13;;;;;;;16.58;41.78;94020.78;5034039;28;20086;-88
2024/01/24 01:58:15;;;;;;;10.15;8.15;;;;;;;16.55;41.96;94005.38;5033175;28;20037;-90
2024/01/24 02:00:41;;;;;;;9.75;7.85;;;;;;;16.58;41.78;94006.41;5049625;28;20033;-92
2024/01/24 02:03:06;;;;;;;9.50;7.50;;;;;;;16.53;42.05;94005.09;5024847;28;20048;-90
2024/01/24 02:05:32;;;;;;;10.52;7.65;;;;;;;16.58;41.67;93996.22;5024160;28;20040;-90
2024/01/24 02:07:58;;;;;;;10.73;8.40;;;;;;;16.58;41.79;93984.56;5022972;28;20639;-89
2024/01/24 02:10:23;;;;;;;10.45;7.70;;;;;;;16.60;41.82;93973.91;5045438;28;20044;-89
2024/01/24 02:12:49;;;;;;;9.65;7.32;;;;;;;16.62;41.83;93974.16;5018186;28;20036;-91
2024/01/24 02:15:14;;;;;;;9.27;7.40;;;;;;;16.61;41.63;93976.16;5023715;28;20948;-89
2024/01/24 02:17:40;;;;;;;9.68;7.57;;;;;;;16.62;41.57;93965.97;5005053;28;20099;-85
2024/01/24 02:20:07;;;;;;;10.05;7.75;;;;;;;16.57;41.93;93964.69;5028371;28;20057;-90
2024/01/24 02:22:33;;;;;;;9.63;7.72;;;;;;;16.61;41.68;93962.50;5031202;28;20040;-89
2024/01/24 02:24:58;;;;;;;9.18;6.68;;;;;;;16.59;41.90;93961.50;5018286;28;20079;-83
2024/01/24 02:27:24;;;;;;;9.07;7.25;;;;;;;16.57;41.93;93956.50;5023180;28;20458;-90
2024/01/24 02:29:49;;;;;;;10.80;7.72;;;;;;;16.62;41.78;93944.91;5035782;28;20427;-88
2024/01/24 02:32:15;;;;;;;8.85;7.50;;;;;;;16.59;41.75;93937.69;5028857;28;20028;-90
2024/01/24 02:34:41;;;;;;;10.25;7.32;;;;;;;16.61;41.74;93924.28;5050692;28;20056;-89
2024/01/24 02:37:07;;;;;;;8.93;6.47;;;;;;;16.59;41.71;93907.66;5024509;28;20068;-89
2024/01/24 02:39:32;;;;;;;8.98;7.18;;;;;;;16.57;42.01;93901.94;5020998;28;20044;-87
2024/01/24 02:41:58;;;;;;;9.07;6.28;;;;;;;16.62;41.56;93890.31;5015045;28;20408;-87
2024/01/24 02:44:23;;;;;;;9.68;6.95;;;;;;;16.59;41.58;93883.09;5026407;28;20489;-91
2024/01/24 02:46:48;;;;;;;9.60;7.13;;;;;;;16.60;41.81;93873.66;5026527;28;20469;-90
2024/01/24 02:49:16;;;;;;;9.27;6.82;;;;;;;16.60;41.61;93854.56;5020759;28;20056;-91
2024/01/24 02:51:42;;;;;;;8.38;6.72;;;;;;;16.62;41.78;93840.44;5004719;28;20045;-90
2024/01/24 02:54:07;;;;;;;8.73;6.78;;;;;;;16.55;41.84;93827.97;5029863;28;20041;-87
2024/01/24 02:56:33;;;;;;;8.52;6.20;;;;;;;16.55;41.71;93819.03;5046220;28;20521;-89
2024/01/24 02:58:59;;;;;;;7.57;6.10;;;;;;;16.65;41.80;93836.75;5016769;28;20411;-84
2024/01/24 03:01:25;;;;;;;8.38;6.25;;;;;;;16.66;41.53;93843.72;5011740;28;20150;-91
2024/01/24 03:03:50;;;;;;;12.77;7.20;;;;;;;16.60;41.43;93857.28;5018060;28;20060;-90
2024/01/24 03:06:16;;;;;;;7.65;5.93;;;;;;;16.59;41.44;93839.41;5030854;28;20037;-90
2024/01/24 03:08:57;;;;;;;6.75;5.80;;;;;;;16.56;41.97;93832.19;4996111;28;20553;-89
2024/01/24 03:11:23;;;;;;;8.30;6.38;;;;;;;16.65;41.83;93844.94;5012064;28;20053;-91
2024/01/24 03:13:48;;;;;;;7.78;5.75;;;;;;;16.68;41.58;93847.41;5033634;28;20822;-87
2024/01/24 03:16:14;;;;;;;7.47;5.75;;;;;;;16.66;41.59;93843.72;5015106;28;20491;-89
2024/01/24 03:18:39;;;;;;;6.78;5.72;;;;;;;16.63;41.49;93839.97;5029215;28;20450;-91
2024/01/24 03:21:07;;;;;;;8.25;5.95;;;;;;;16.63;41.87;93825.53;5011401;28;20417;-91
2024/01/24 03:23:32;;;;;;;7.35;6.05;;;;;;;16.60;41.46;93835.47;5014343;28;20040;-91
2024/01/24 03:25:58;;;;;;;6.55;5.30;;;;;;;16.73;41.59;93837.75;5019356;28;20040;-89
2024/01/24 03:28:24;;;;;;;11.40;6.75;;;;;;;16.68;41.74;93833.03;5028353;28;20052;-91
2024/01/24 03:30:49;;;;;;;6.18;5.20;;;;;;;16.67;41.69;93831.56;5012442;28;20045;-89
2024/01/24 03:33:15;;;;;;;6.32;5.05;;;;;;;16.64;41.44;93844.19;5027805;28;20458;-90
2024/01/24 03:35:40;;;;;;;9.70;5.90;;;;;;;16.66;41.69;93836.25;5038323;28;20043;-91
2024/01/24 03:38:05;;;;;;;7.63;5.47;;;;;;;16.66;41.85;93839.00;4999840;28;20839;-90
2024/01/24 03:40:32;;;;;;;5.95;5.13;;;;;;;16.66;41.72;93844.44;5013528;28;20499;-89
2024/01/24 03:42:58;;;;;;;7.28;5.70;;;;;;;16.67;41.60;93834.28;5031335;28;20407;-88
2024/01/24 03:45:23;;;;;;;8.45;6.03;;;;;;;16.60;41.91;93832.72;5007074;28;20128;-87
2024/01/24 03:47:49;;;;;;;8.05;5.75;;;;;;;16.64;41.60;93813.41;5017776;28;20107;-88
2024/01/24 03:50:14;;;;;;;7.28;5.22;;;;;;;16.58;41.80;93821.53;5031327;28;20099;-91
2024/01/24 03:52:40;;;;;;;8.60;5.28;;;;;;;16.64;41.76;93808.72;5016381;28;20425;-89
2024/01/24 03:55:05;;;;;;;5.63;4.60;;;;;;;16.62;41.71;93813.13;5034342;28;20039;-90
2024/01/24 03:57:31;;;;;;;6.35;5.15;;;;;;;16.67;41.64;93812.44;5039413;28;20406;-90
2024/01/24 03:59:56;;;;;;;7.05;5.38;;;;;;;16.60;42.04;93802.69;5035949;28;20051;-90
2024/01/24 04:02:22;;;;;;;8.60;5.40;;;;;;;16.61;41.78;93817.84;5019290;28;20057;-90
2024/01/24 04:04:47;;;;;;;5.07;4.57;;;;;;;16.62;41.71;93813.88;5052322;28;20045;-89
2024/01/24 04:07:13;;;;;;;6.22;4.82;;;;;;;16.62;41.76;93815.84;5035198;28;20036;-90
2024/01/24 04:09:38;;;;;;;8.18;5.50;;;;;;;16.59;42.09;93803.19;5035505;28;20124;-89
2024/01/24 04:12:04;;;;;;;7.90;5.43;;;;;;;16.65;41.79;93795.81;5051206;28;20395;-91
2024/01/24 04:14:29;;;;;;;7.13;5.18;;;;;;;16.53;41.89;93769.66;5034496;28;20036;-89
2024/01/24 04:16:55;;;;;;;6.72;4.80;;;;;;;16.56;41.54;93785.06;5024652;28;20564;-86
2024/01/24 04:19:21;;;;;;;5.50;4.43;;;;;;;16.59;41.63;93781.34;5056456;28;20586;-91
2024/01/24 04:21:47;;;;;;;7.05;4.90;;;;;;;16.53;41.80;93788.75;5033656;28;20045;-90
2024/01/24 04:24:12;;;;;;;5.72;4.85;;;;;;;16.55;41.80;93775.38;5032506;28;20072;-85
2024/01/24 04:26:39;;;;;;;7.07;4.43;;;;;;;16.65;41.94;93765.78;5035049;28;20049;-90
2024/01/24 04:29:04;;;;;;;8.30;4.78;;;;;;;16.66;41.55;93757.09;5069735;28;20044;-87
2024/01/24 04:31:30;;;;;;;20.10;10.07;;;;;;;16.73;41.85;93756.63;5076088;28;20037;-88
2024/01/24 04:33:55;;;;;;;7.30;5.32;;;;;;;16.87;41.98;93757.66;5052221;28;20090;-90
2024/01/24 04:36:20;;;;;;;156.23;102.38;;;;;;;16.92;41.66;93756.16;5052916;28;20513;-90
2024/01/24 04:38:46;;;;;;;18.80;10.27;;;;;;;16.96;41.47;93756.69;5070844;28;20482;-89
2024/01/24 04:41:11;;;;;;;9.98;8.02;;;;;;;16.94;41.59;93751.72;5041026;28;20044;-87
2024/01/24 04:43:38;;;;;;;9.45;6.55;;;;;;;16.95;41.70;93750.47;5029822;28;20052;-87
2024/01/24 04:46:04;;;;;;;9.35;7.57;;;;;;;16.95;41.87;93752.47;5043577;28;20045;-89
2024/01/24 04:48:29;;;;;;;383.10;211.82;;;;;;;16.83;41.80;93759.13;5029899;28;20110;-90
2024/01/24 04:50:55;;;;;;;13.25;9.50;;;;;;;16.78;41.88;93766.81;5024702;28;20040;-89
2024/01/24 04:53:21;;;;;;;16.67;10.68;;;;;;;16.81;41.87;93753.41;5069656;28;20048;-90
2024/01/24 04:55:47;;;;;;;20.23;11.13;;;;;;;16.79;41.65;93760.13;5018231;28;20041;-92
2024/01/24 04:58:12;;;;;;;16.08;11.25;;;;;;;16.74;41.87;93762.81;5040148;28;20470;-84
2024/01/24 05:00:39;;;;;;;18.90;12.40;;;;;;;16.78;42.04;93761.34;5031997;28;20358;-86
2024/01/24 05:03:04;;;;;;;23.02;13.43;;;;;;;16.81;41.81;93745.97;5069955;28;20586;-90
2024/01/24 05:05:29;;;;;;;22.50;13.68;;;;;;;16.79;42.07;93756.63;5053375;28;20041;-85
2024/01/24 05:07:56;;;;;;;17.70;12.18;;;;;;;16.70;42.07;93748.66;5056209;28;20075;-91
2024/01/24 05:10:22;;;;;;;38.53;15.85;;;;;;;16.72;41.89;93757.84;5032702;28;20040;-89
2024/01/24 05:12:48;;;;;;;36.45;14.32;;;;;;;16.60;41.93;93758.28;5035295;28;20502;-87
2024/01/24 05:15:13;;;;;;;34.42;16.65;;;;;;;16.66;42.22;93742.72;5035005;28;20060;-93
2024/01/24 05:17:39;;;;;;;52.28;22.98;;;;;;;16.65;41.81;93703.75;5034781;28;20048;-92
2024/01/24 05:20:06;;;;;;;62.33;25.13;;;;;;;16.63;41.60;93730.78;5031162;28;20711;-87
2024/01/24 05:22:32;;;;;;;53.45;21.85;;;;;;;16.61;41.97;93737.94;5049731;28;20044;-88
2024/01/24 05:24:58;;;;;;;54.75;24.83;;;;;;;16.73;42.16;93731.31;5051571;28;20461;-90
2024/01/24 05:27:24;;;;;;;65.60;32.90;;;;;;;16.72;42.28;93730.56;5054880;28;20037;-87
2024/01/24 05:29:55;;;;;;;67.60;30.17;;;;;;;16.70;42.21;93745.94;5062768;28;20048;-89
2024/01/24 05:32:21;;;;;;;80.13;37.05;;;;;;;16.73;42.13;93756.63;5040769;28;20037;-91
2024/01/24 05:34:47;;;;;;;101.60;43.65;;;;;;;16.72;42.16;93763.31;5053426;28;20056;-91
2024/01/24 05:37:14;;;;;;;93.93;40.97;;;;;;;16.73;42.28;93764.06;5052981;28;20033;-85
2024/01/24 05:39:41;;;;;;;115.38;43.45;;;;;;;16.72;42.23;93752.41;5069521;28;20054;-91
2024/01/24 05:42:07;;;;;;;89.00;39.05;;;;;;;16.72;42.21;93748.91;5058905;28;20033;-88
2024/01/24 05:44:34;;;;;;;109.85;45.70;;;;;;;16.75;42.47;93753.41;5020812;28;20110;-91
2024/01/24 05:47:00;;;;;;;118.53;60.20;;;;;;;16.70;42.45;93751.38;5033986;28;20044;-87
2024/01/24 05:49:25;;;;;;;106.68;41.55;;;;;;;16.74;42.04;93749.91;5048362;28;20060;-92
2024/01/24 05:51:51;;;;;;;98.65;43.78;;;;;;;16.75;41.97;93756.88;5024992;28;20588;-90
2024/01/24 05:54:16;;;;;;;95.32;43.90;;;;;;;16.76;41.99;93749.44;5043238;28;20514;-87
2024/01/24 05:56:42;;;;;;;88.05;42.35;;;;;;;16.78;42.03;93755.16;5013313;28;20075;-87
2024/01/24 05:59:09;;;;;;;96.22;41.13;;;;;;;16.80;42.07;93760.88;5029656;28;20119;-86
2024/01/24 06:01:35;;;;;;;90.18;42.38;;;;;;;16.82;42.32;93744.00;5031401;28;20041;-88
2024/01/24 06:04:00;;;;;;;397.45;99.47;;;;;;;16.79;42.54;93741.00;5031202;28;20090;-89
2024/01/24 06:06:25;;;;;;;212.40;69.15;;;;;;;16.74;42.13;93749.91;5019898;28;20044;-90
2024/01/24 06:08:51;;;;;;;269.30;80.55;;;;;;;16.76;42.01;93752.91;5035106;28;20039;-91
2024/01/24 06:11:17;;;;;;;289.25;86.72;;;;;;;16.81;42.04;93759.63;5035170;28;20045;-92
2024/01/24 06:13:43;;;;;;;292.58;87.65;;;;;;;16.79;42.21;93759.38;5026888;28;20045;-83
2024/01/24 06:16:10;;;;;;;246.38;77.97;;;;;;;16.79;42.08;93767.56;5027208;28;20037;-90
2024/01/24 06:18:36;;;;;;;243.85;74.85;;;;;;;16.91;42.04;93763.63;5063945;28;20071;-90
2024/01/24 06:21:07;;;;;;;190.82;68.97;;;;;;;16.86;42.12;93769.09;5046579;28;20041;-87
2024/01/24 06:23:33;;;;;;;169.45;65.47;;;;;;;16.90;42.05;93770.31;5032444;28;20045;-88
2024/01/24 06:25:58;;;;;;;150.30;62.65;;;;;;;16.95;41.69;93774.31;5028375;28;20455;-87
2024/01/24 06:28:32;;;;;;;152.35;66.80;;;;;;;16.92;42.04;93772.56;5034734;28;20391;-88
2024/01/24 06:31:04;;;;;;;145.45;70.03;;;;;;;16.92;42.11;93767.09;5057768;28;20033;-89
2024/01/24 06:33:30;;;;;;;142.68;65.63;;;;;;;16.95;41.73;93766.84;5057102;28;20120;-91
2024/01/24 06:35:57;;;;;;;135.43;61.22;;;;;;;16.97;41.91;93758.94;5073592;28;20046;-91
2024/01/24 06:38:23;;;;;;;152.52;73.85;;;;;;;16.92;41.60;93753.44;5035483;28;20068;-89
2024/01/24 06:40:49;;;;;;;157.57;73.78;;;;;;;16.92;42.12;93751.47;5037373;28;20102;-85
2024/01/24 06:43:18;;;;;;;159.63;76.38;;;;;;;16.91;42.21;93741.03;5033669;28;20110;-89
2024/01/24 06:45:44;;;;;;;167.50;81.13;;;;;;;16.93;41.94;93746.75;5032190;28;20048;-83
2024/01/24 06:48:09;;;;;;;184.73;86.30;;;;;;;16.88;42.30;93752.97;5032427;28;20505;-83
2024/01/24 06:50:35;;;;;;;177.98;87.28;;;;;;;16.93;42.41;93744.75;5014555;28;20131;-83
2024/01/24 06:53:00;;;;;;;182.77;90.82;;;;;;;16.96;42.05;93743.03;5066064;28;20395;-84
2024/01/24 06:55:26;;;;;;;210.20;102.82;;;;;;;16.93;42.30;93749.47;5054673;28;20047;-83
2024/01/24 06:57:51;;;;;;;227.25;113.68;;;;;;;16.89;42.34;93746.97;5026651;28;20047;-83
2024/01/24 07:00:18;;;;;;;207.52;102.90;;;;;;;16.94;42.30;93740.78;5029408;28;20043;-82
2024/01/24 07:02:43;;;;;;;219.10;103.28;;;;;;;16.95;42.32;93742.28;5017823;28;20064;-84
2024/01/24 07:05:09;;;;;;;181.25;86.22;;;;;;;17.05;42.26;93745.53;5041483;28;20036;-84
2024/01/24 07:07:37;;;;;;;171.45;79.00;;;;;;;17.05;42.14;93757.22;5046707;28;20040;-85
2024/01/24 07:10:02;;;;;;;161.20;81.38;;;;;;;17.03;42.13;93740.56;5033457;28;20029;-84
2024/01/24 07:12:28;;;;;;;118.22;57.90;;;;;;;17.01;42.34;93728.66;5039709;28;20044;-83
2024/01/24 07:14:53;;;;;;;127.78;64.97;;;;;;;16.94;42.70;93731.84;5017665;28;20060;-86
2024/01/24 07:17:19;;;;;;;149.52;77.13;;;;;;;16.97;42.33;93714.47;5001707;28;20049;-83
2024/01/24 07:19:44;;;;;;;132.48;64.47;;;;;;;17.01;42.32;93726.66;5030002;28;20056;-80
2024/01/24 07:22:10;;;;;;;127.15;64.28;;;;;;;17.04;42.15;93733.13;5050527;28;20049;-80
2024/01/24 07:24:37;;;;;;;144.90;70.80;;;;;;;16.91;42.54;93752.69;5028643;28;20043;-81
2024/01/24 07:27:04;;;;;;;141.82;68.18;;;;;;;16.85;42.58;93751.19;5064040;28;20044;-83
2024/01/24 07:29:29;;;;;;;151.30;74.65;;;;;;;16.85;42.68;93776.53;5038648;28;20060;-82
2024/01/24 07:31:55;;;;;;;110.45;57.83;;;;;;;16.91;42.47;93780.00;5036135;28;20176;-83
2024/01/24 07:34:20;;;;;;;219.35;105.70;;;;;;;16.81;42.68;93769.81;5016405;28;20055;-82
2024/01/24 07:36:46;;;;;;;237.82;136.85;;;;;;;16.84;42.84;93760.63;5026443;28;20036;-83
2024/01/24 07:39:12;;;;;;;184.32;94.43;;;;;;;16.94;42.51;93753.69;5046322;28;20284;-83
2024/01/24 07:41:37;;;;;;;171.30;89.03;;;;;;;16.94;42.77;93750.97;5031918;28;20155;-83
2024/01/24 07:44:03;;;;;;;193.38;101.25;;;;;;;16.90;42.55;93764.84;5036309;28;20055;-82
2024/01/24 07:46:29;;;;;;;190.27;105.68;;;;;;;16.92;42.79;93756.16;5033626;28;20467;-82
2024/01/24 07:48:56;;;;;;;202.93;103.35;;;;;;;16.92;42.52;93762.38;5025201;28;20172;-84
2024/01/24 07:51:23;;;;;;;193.07;98.72;;;;;;;16.95;42.82;93766.84;5061969;28;20037;-85
2024/01/24 07:53:50;;;;;;;203.13;105.07;;;;;;;16.95;42.80;93772.31;5068557;28;20037;-84
2024/01/24 07:56:16;;;;;;;181.68;98.72;;;;;;;16.96;42.66;93762.16;5048742;28;20092;-90
2024/01/24 07:58:42;;;;;;;191.35;104.47;;;;;;;16.98;42.27;93773.31;5086961;28;20131;-88
2024/01/24 08:01:10;;;;;;;193.70;104.35;;;;;;;16.94;42.30;93767.34;5091506;28;20080;-89
2024/01/24 08:03:35;;;;;;;200.25;101.95;;;;;;;16.93;42.54;93774.03;5059475;28;20047;-92
2024/01/24 08:06:01;;;;;;;197.88;102.82;;;;;;;16.89;42.66;93777.00;5046012;28;20039;-91
2024/01/24 08:08:27;;;;;;;192.90;104.07;;;;;;;17.04;42.86;93760.44;5077346;28;20125;-92
2024/01/24 08:10:54;;;;;;;209.98;113.95;;;;;;;16.93;42.72;93749.47;5071734;23;20057;-83
2024/01/24 08:13:20;;;;;;;207.88;111.00;;;;;;;16.91;42.89;93717.19;5039617;28;20491;-84
2024/01/24 08:15:48;;;;;;;217.98;121.72;;;;;;;16.97;42.74;93703.56;5023971;28;20049;-91
2024/01/24 08:18:14;;;;;;;248.18;137.55;;;;;;;16.95;42.82;93693.13;5035583;28;20073;-83
2024/01/24 08:20:41;;;;;;;249.70;136.27;;;;;;;17.04;42.45;93692.16;5036229;28;20042;-86
2024/01/24 08:23:09;;;;;;;244.55;137.05;;;;;;;17.11;42.84;93719.72;5041301;28;20037;-84
2024/01/24 08:25:36;;;;;;;294.90;155.25;;;;;;;17.00;42.69;93730.63;5036370;28;20049;-83
2024/01/24 08:28:09;;;;;;;271.88;144.70;;;;;;;17.09;42.43;93735.13;5051673;28;20038;-84
2024/01/24 08:30:34;;;;;;;246.05;136.20;;;;;;;17.06;42.52;93719.72;5026070;28;20037;-89
2024/01/24 08:33:00;;;;;;;270.13;145.57;;;;;;;17.09;42.75;93714.03;5043189;28;20044;-87
2024/01/24 08:35:25;;;;;;;259.48;152.48;;;;;;;17.10;42.54;93714.78;5030477;28;20049;-89
2024/01/24 08:37:52;;;;;;;290.80;160.00;;;;;;;17.11;42.70;93710.78;5043948;28;20046;-86
2024/01/24 08:40:21;;;;;;;307.13;179.45;;;;;;;17.11;42.58;93703.31;5056273;28;20048;-85
2024/01/24 08:42:46;;;;;;;267.40;154.63;;;;;;;17.13;42.89;93692.66;5053161;28;20041;-91
2024/01/24 08:45:12;;;;;;;281.23;164.52;;;;;;;17.04;42.73;93676.50;5037503;28;20129;-86
2024/01/24 08:47:38;;;;;;;296.17;172.98;;;;;;;17.04;42.54;93657.41;5033787;28;20045;-89
2024/01/24 08:50:04;;;;;;;311.35;187.65;;;;;;;16.99;42.71;93666.31;5028821;28;20038;-85
2024/01/24 08:52:31;;;;;;;348.73;220.52;;;;;;;17.04;42.91;93675.78;5019132;28;20038;-86
2024/01/24 08:54:59;;;;;;;424.35;244.82;;;;;;;17.06;42.75;93687.69;5031742;28;20050;-87
2024/01/24 08:57:26;;;;;;;391.52;233.25;;;;;;;17.12;42.82;93658.38;5009784;28;20042;-85
2024/01/24 08:59:52;;;;;;;386.63;244.07;;;;;;;17.14;42.91;93655.16;5021235;28;20041;-86
2024/01/24 09:02:17;;;;;;;420.58;278.27;;;;;;;17.06;42.82;93657.66;5034057;28;20091;-84
2024/01/24 09:04:43;;;;;;;387.20;256.08;;;;;;;17.09;42.85;93677.75;5014706;28;20768;-85
2024/01/24 09:07:08;;;;;;;380.33;241.45;;;;;;;17.08;42.79;93682.47;5016399;28;20454;-85
2024/01/24 09:09:35;;;;;;;366.00;234.10;;;;;;;17.04;43.14;93681.97;5011237;28;20052;-87
2024/01/24 09:12:00;;;;;;;347.40;215.70;;;;;;;17.04;42.71;93667.56;5010434;28;20046;-83
2024/01/24 09:14:26;;;;;;;324.05;199.18;;;;;;;17.09;43.20;93667.59;4977594;28;20506;-85
2024/01/24 09:16:51;;;;;;;364.77;234.55;;;;;;;17.17;42.57;93658.88;5000509;28;20053;-86
2024/01/24 09:19:17;;;;;;;359.23;227.88;;;;;;;17.23;42.32;93662.38;5018209;28;20072;-86
2024/01/24 09:21:43;;;;;;;362.63;238.40;;;;;;;17.08;42.58;93652.44;5007130;28;20686;-84
2024/01/24 09:24:08;;;;;;;369.67;243.50;;;;;;;17.10;42.69;93638.28;4988475;28;20046;-85
2024/01/24 09:26:37;;;;;;;374.63;246.40;;;;;;;17.12;42.76;93628.31;4974893;28;20053;-87
2024/01/24 09:29:02;;;;;;;332.75;217.98;;;;;;;17.22;43.02;93626.09;4998917;28;20041;-86
2024/01/24 09:31:29;;;;;;;342.92;227.45;;;;;;;17.28;42.64;93613.19;4998075;28;20052;-85
2024/01/24 09:33:55;;;;;;;337.10;218.95;;;;;;;17.23;42.53;93608.47;5016366;28;20037;-86
2024/01/24 09:36:23;;;;;;;352.00;230.10;;;;;;;17.16;42.75;93621.88;4998983;28;20100;-85
2024/01/24 09:38:48;;;;;;;365.15;234.57;;;;;;;17.12;43.21;93631.06;5013434;28;20045;-85
2024/01/24 09:41:17;;;;;;;340.77;219.90;;;;;;;17.23;43.11;93630.31;5010000;28;20037;-86
2024/01/24 09:43:43;;;;;;;354.75;203.73;;;;;;;17.26;42.82;93629.34;4996193;28;20380;-85
2024/01/24 09:46:09;;;;;;;340.25;219.55;;;;;;;17.16;43.21;93639.00;5012031;28;20057;-85
2024/01/24 09:48:35;;;;;;;333.95;221.68;;;;;;;17.18;42.87;93633.06;5015598;28;20144;-85
2024/01/24 09:51:00;;;;;;;358.45;218.55;;;;;;;17.26;42.87;93637.53;5001547;28;20408;-86
2024/01/24 09:53:25;;;;;;;325.73;191.90;;;;;;;17.23;43.18;93640.50;5009150;28;20045;-86
2024/01/24 09:55:51;;;;;;;335.92;197.77;;;;;;;17.15;42.93;93612.94;4995601;28;20037;-88
2024/01/24 09:58:17;;;;;;;318.08;197.05;;;;;;;17.22;42.96;93630.81;4998546;28;20034;-89
2024/01/24 10:00:44;;;;;;;332.08;208.40;;;;;;;17.19;42.78;93634.53;5018483;28;20065;-91
2024/01/24 10:03:09;;;;;;;314.98;195.95;;;;;;;17.18;43.26;93614.69;5004953;28;20111;-87
2024/01/24 10:05:35;;;;;;;344.77;193.43;;;;;;;17.18;42.92;93617.41;4996235;28;20042;-86
2024/01/24 10:08:00;;;;;;;308.58;184.70;;;;;;;17.22;43.09;93617.16;5002318;28;20069;-90
2024/01/24 10:10:26;;;;;;;320.15;192.30;;;;;;;17.15;43.34;93615.66;4996372;28;20084;-89
2024/01/24 10:12:51;;;;;;;319.92;195.45;;;;;;;17.17;43.21;93612.44;5012527;28;20049;-90
2024/01/24 10:15:17;;;;;;;318.98;190.23;;;;;;;17.16;43.07;93594.56;4988250;28;20044;-89
2024/01/24 10:17:42;;;;;;;306.60;194.27;;;;;;;17.23;42.70;93597.53;5011285;28;20041;-85
2024/01/24 10:20:09;;;;;;;265.63;172.90;;;;;;;17.17;43.27;93576.94;5011066;28;20136;-85
2024/01/24 10:22:34;;;;;;;273.13;174.02;;;;;;;17.24;43.17;93576.44;5007973;28;20041;-85
2024/01/24 10:24:59;;;;;;;279.80;170.32;;;;;;;17.21;43.47;93580.91;4987870;28;20052;-91
2024/01/24 10:27:26;;;;;;;269.95;166.48;;;;;;;17.27;43.50;93572.72;5003892;28;20503;-86
2024/01/24 10:29:51;;;;;;;276.90;176.73;;;;;;;17.30;43.04;93567.00;5014203;28;20043;-85
2024/01/24 10:32:17;;;;;;;288.23;181.50;;;;;;;17.23;43.27;93564.00;5011965;28;20042;-87
2024/01/24 10:34:42;;;;;;;306.73;193.40;;;;;;;17.22;43.30;93568.72;5017581;28;20045;-86
2024/01/24 10:37:08;;;;;;;292.00;190.18;;;;;;;17.24;43.46;93573.69;5020546;28;20088;-87
2024/01/24 10:39:35;;;;;;;310.13;194.05;;;;;;;17.27;43.38;93568.00;4994719;28;20041;-84
2024/01/24 10:42:02;;;;;;;297.00;186.15;;;;;;;17.36;43.22;93569.69;5014817;28;20034;-86
2024/01/24 10:44:28;;;;;;;320.25;200.90;;;;;;;17.27;43.21;93575.44;5001651;28;20281;-84
2024/01/24 10:46:55;;;;;;;316.52;190.68;;;;;;;17.26;43.15;93565.75;5001607;28;20041;-85
2024/01/24 10:49:21;;;;;;;272.55;161.93;;;;;;;17.35;43.16;93565.47;5006661;28;20095;-87
2024/01/24 10:51:47;;;;;;;258.67;165.38;;;;;;;17.34;43.31;93569.44;4995158;28;20503;-85
2024/01/24 10:54:14;;;;;;;263.70;164.38;;;;;;;17.43;43.35;93548.06;4974030;28;20495;-83
2024/01/24 10:56:39;;;;;;;256.73;160.40;;;;;;;17.50;42.79;93543.34;5006017;28;20029;-86
2024/01/24 10:59:05;;;;;;;266.40;168.50;;;;;;;17.42;43.09;93557.50;5004883;28;20059;-88
2024/01/24 11:01:30;;;;;;;247.88;153.40;;;;;;;17.47;43.33;93545.81;5011840;28;20071;-85
2024/01/24 11:03:57;;;;;;;291.35;169.70;;;;;;;17.40;43.53;93554.53;4994428;28;20045;-85
2024/01/24 11:06:24;;;;;;;242.70;144.50;;;;;;;17.44;43.44;93537.88;5006811;28;20137;-85
2024/01/24 11:08:54;;;;;;;247.10;147.40;;;;;;;17.39;43.86;93542.13;5014846;28;20037;-85